sensor_id;sensor_type;location;lat;lon;timestamp;pressure;altitude;pressure_sealevel;temperature;humidity
27202;BME280;14717;46.924;15.474;2023-05-12T00:01:21;97596.94;;;11.03;100.00
27202;BME280;14717;46.924;15.474;2023-05-12T00:03:46;97604.09;;;11.04;100.00
27202;BME280;14717;46.924;15.474;2023-05-12T00:06:12;97600.72;;;11.07;100.00
27202;BME280;14717;46.924;15.474;2023-05-12T00:08:37;97598.88;;;11.03;100.00
27202;BME280;14717;46.924;15.474;2023-05-12T00:11:03;97595.88;;;10.99;100.00
27202;BME280;14717;46.924;15.474;2023-05-12T00:13:28;97593.44;;;10.98;100.00
27202;BME280;14717;46.924;15.474;2023-05-12T00:15:54;97598.97;;;10.98;100.00
27202;BME280;14717;46.924;15.474;2023-05-12T00:18:23;97598.63;;;10.99;100.00
27202;BME280;14717;46.924;15.474;2023-05-12T00:20:49;97591.03;;;11.09;100.00
27202;BME280;14717;46.924;15.474;2023-05-12T00:23:14;97592.84;;;11.14;100.00
27202;BME280;14717;46.924;15.474;2023-05-12T00:25:40;97587.50;;;11.04;100.00
27202;BME280;14717;46.924;15.474;2023-05-12T00:28:05;97589.75;;;11.02;100.00
27202;BME280;14717;46.924;15.474;2023-05-12T00:30:30;97588.34;;;11.04;100.00
27202;BME280;14717;46.924;15.474;2023-05-12T00:32:56;97589.97;;;11.05;100.00
27202;BME280;14717;46.924;15.474;2023-05-12T00:35:22;97589.66;;;11.07;100.00
27202;BME280;14717;46.924;15.474;2023-05-12T00:37:48;97583.13;;;11.03;100.00
27202;BME280;14717;46.924;15.474;2023-05-12T00:40:13;97585.19;;;11.11;100.00
27202;BME280;14717;46.924;15.474;2023-05-12T00:42:38;97581.38;;;11.07;100.00
27202;BME280;14717;46.924;15.474;2023-05-12T00:45:04;97584.13;;;11.07;100.00
27202;BME280;14717;46.924;15.474;2023-05-12T00:47:30;97587.31;;;11.14;100.00
27202;BME280;14717;46.924;15.474;2023-05-12T00:49:56;97583.22;;;11.11;100.00
27202;BME280;14717;46.924;15.474;2023-05-12T00:52:22;97580.47;;;11.11;100.00
27202;BME280;14717;46.924;15.474;2023-05-12T00:54:47;97576.34;;;11.09;100.00
27202;BME280;14717;46.924;15.474;2023-05-12T00:57:13;97577.91;;;11.15;100.00
27202;BME280;14717;46.924;15.474;2023-05-12T00:59:39;97572.56;;;11.05;100.00
27202;BME280;14717;46.924;15.474;2023-05-12T01:02:04;97582.22;;;11.07;100.00
27202;BME280;14717;46.924;15.474;2023-05-12T01:04:32;97571.47;;;11.06;100.00
27202;BME280;14717;46.924;15.474;2023-05-12T01:07:18;97571.16;;;11.07;100.00
27202;BME280;14717;46.924;15.474;2023-05-12T01:09:45;97571.97;;;11.08;100.00
27202;BME280;14717;46.924;15.474;2023-05-12T01:12:10;97568.38;;;11.07;100.00
27202;BME280;14717;46.924;15.474;2023-05-12T01:14:36;97572.78;;;11.08;100.00
27202;BME280;14717;46.924;15.474;2023-05-12T01:17:06;97578.00;;;11.10;100.00
27202;BME280;14717;46.924;15.474;2023-05-12T01:19:45;97571.88;;;11.13;100.00
27202;BME280;14717;46.924;15.474;2023-05-12T01:22:11;97576.91;;;11.11;100.00
27202;BME280;14717;46.924;15.474;2023-05-12T01:25:01;97571.38;;;11.11;100.00
27202;BME280;14717;46.924;15.474;2023-05-12T01:27:28;97580.06;;;11.04;100.00
27202;BME280;14717;46.924;15.474;2023-05-12T01:29:59;97573.38;;;11.05;100.00
27202;BME280;14717;46.924;15.474;2023-05-12T01:32:26;97582.22;;;11.07;100.00
27202;BME280;14717;46.924;15.474;2023-05-12T01:34:51;97578.59;;;11.07;100.00
27202;BME280;14717;46.924;15.474;2023-05-12T01:37:17;97575.63;;;11.03;100.00
27202;BME280;14717;46.924;15.474;2023-05-12T01:39:43;97580.34;;;11.03;100.00
27202;BME280;14717;46.924;15.474;2023-05-12T01:42:08;97578.69;;;11.02;100.00
27202;BME280;14717;46.924;15.474;2023-05-12T01:44:34;97572.97;;;10.99;100.00
27202;BME280;14717;46.924;15.474;2023-05-12T01:46:59;97577.06;;;11.01;100.00
27202;BME280;14717;46.924;15.474;2023-05-12T01:49:26;97571.53;;;11.01;100.00
27202;BME280;14717;46.924;15.474;2023-05-12T01:51:51;97571.53;;;11.01;100.00
27202;BME280;14717;46.924;15.474;2023-05-12T01:54:17;97575.63;;;11.03;100.00
27202;BME280;14717;46.924;15.474;2023-05-12T01:56:42;97569.38;;;10.98;100.00
27202;BME280;14717;46.924;15.474;2023-05-12T01:59:07;97579.06;;;10.96;100.00
27202;BME280;14717;46.924;15.474;2023-05-12T02:01:33;97563.84;;;10.98;100.00
27202;BME280;14717;46.924;15.474;2023-05-12T02:03:58;97564.16;;;10.97;100.00
27202;BME280;14717;46.924;15.474;2023-05-12T02:06:24;97565.56;;;10.94;100.00
27202;BME280;14717;46.924;15.474;2023-05-12T02:08:50;97565.56;;;10.94;100.00
27202;BME280;14717;46.924;15.474;2023-05-12T02:11:16;97564.16;;;10.97;100.00
27202;BME280;14717;46.924;15.474;2023-05-12T02:13:41;97563.94;;;10.93;100.00
27202;BME280;14717;46.924;15.474;2023-05-12T02:16:09;97569.59;;;11.02;100.00
27202;BME280;14717;46.924;15.474;2023-05-12T02:18:35;97565.19;;;11.01;100.00
27202;BME280;14717;46.924;15.474;2023-05-12T02:21:00;97573.47;;;11.01;100.00
27202;BME280;14717;46.924;15.474;2023-05-12T02:23:26;97563.34;;;10.96;100.00
27202;BME280;14717;46.924;15.474;2023-05-12T02:25:51;97573.25;;;10.97;100.00
27202;BME280;14717;46.924;15.474;2023-05-12T02:28:16;97561.09;;;10.98;100.00
27202;BME280;14717;46.924;15.474;2023-05-12T02:30:46;97564.97;;;10.97;100.00
27202;BME280;14717;46.924;15.474;2023-05-12T02:33:13;97565.81;;;10.98;100.00
27202;BME280;14717;46.924;15.474;2023-05-12T02:35:38;97555.78;;;11.02;100.00
27202;BME280;14717;46.924;15.474;2023-05-12T02:38:04;97558.84;;;11.00;100.00
27202;BME280;14717;46.924;15.474;2023-05-12T02:40:29;97558.63;;;10.97;100.00
27202;BME280;14717;46.924;15.474;2023-05-12T02:42:55;97559.22;;;10.94;100.00
27202;BME280;14717;46.924;15.474;2023-05-12T02:45:20;97555.13;;;10.91;100.00
27202;BME280;14717;46.924;15.474;2023-05-12T02:47:46;97550.63;;;10.95;100.00
27202;BME280;14717;46.924;15.474;2023-05-12T02:50:12;97548.88;;;10.99;100.00
27202;BME280;14717;46.924;15.474;2023-05-12T02:52:37;97555.84;;;10.97;100.00
27202;BME280;14717;46.924;15.474;2023-05-12T02:55:03;97555.03;;;10.96;100.00
27202;BME280;14717;46.924;15.474;2023-05-12T02:57:29;97557.19;;;10.99;100.00
27202;BME280;14717;46.924;15.474;2023-05-12T03:00:01;97553.31;;;11.00;100.00
27202;BME280;14717;46.924;15.474;2023-05-12T03:02:28;97552.50;;;11.00;100.00
27202;BME280;14717;46.924;15.474;2023-05-12T03:04:54;97556.38;;;10.99;100.00
27202;BME280;14717;46.924;15.474;2023-05-12T03:07:19;97559.44;;;10.97;100.00
27202;BME280;14717;46.924;15.474;2023-05-12T03:09:44;97555.56;;;10.98;100.00
27202;BME280;14717;46.924;15.474;2023-05-12T03:12:10;97558.25;;;11.03;100.00
27202;BME280;14717;46.924;15.474;2023-05-12T03:14:35;97550.53;;;11.00;100.00
27202;BME280;14717;46.924;15.474;2023-05-12T03:17:00;97557.00;;;11.09;100.00
27202;BME280;14717;46.924;15.474;2023-05-12T03:19:26;97557.09;;;11.04;100.00
27202;BME280;14717;46.924;15.474;2023-05-12T03:21:54;97549.53;;;10.96;100.00
27202;BME280;14717;46.924;15.474;2023-05-12T03:24:20;97561.09;;;10.98;100.00
27202;BME280;14717;46.924;15.474;2023-05-12T03:26:45;97559.94;;;10.99;100.00
27202;BME280;14717;46.924;15.474;2023-05-12T03:29:11;97559.94;;;10.99;100.00
27202;BME280;14717;46.924;15.474;2023-05-12T03:31:39;97564.97;;;10.97;100.00
27202;BME280;14717;46.924;15.474;2023-05-12T03:34:04;97557.72;;;11.01;100.00
27202;BME280;14717;46.924;15.474;2023-05-12T03:36:29;97561.97;;;10.94;100.00
27202;BME280;14717;46.924;15.474;2023-05-12T03:38:55;97552.97;;;10.88;100.00
27202;BME280;14717;46.924;15.474;2023-05-12T03:41:20;97564.53;;;10.90;100.00
27202;BME280;14717;46.924;15.474;2023-05-12T03:43:46;97567.72;;;10.97;100.00
27202;BME280;14717;46.924;15.474;2023-05-12T03:46:11;97571.09;;;10.94;100.00
27202;BME280;14717;46.924;15.474;2023-05-12T03:48:37;97563.63;;;10.95;100.00
27202;BME280;14717;46.924;15.474;2023-05-12T03:51:02;97569.69;;;10.97;100.00
27202;BME280;14717;46.924;15.474;2023-05-12T03:53:28;97565.56;;;10.94;100.00
27202;BME280;14717;46.924;15.474;2023-05-12T03:55:53;97569.47;;;10.93;100.00
27202;BME280;14717;46.924;15.474;2023-05-12T03:58:19;97565.81;;;10.98;100.00
27202;BME280;14717;46.924;15.474;2023-05-12T04:00:44;97564.38;;;11.00;100.00
27202;BME280;14717;46.924;15.474;2023-05-12T04:03:10;97570.22;;;11.12;100.00
27202;BME280;14717;46.924;15.474;2023-05-12T04:05:36;97566.34;;;11.13;100.00
27202;BME280;14717;46.924;15.474;2023-05-12T04:08:03;97563.38;;;11.09;100.00
27202;BME280;14717;46.924;15.474;2023-05-12T04:10:29;97571.06;;;11.12;100.00
27202;BME280;14717;46.924;15.474;2023-05-12T04:12:54;97572.16;;;10.98;100.00
27202;BME280;14717;46.924;15.474;2023-05-12T04:15:19;97574.41;;;10.96;100.00
27202;BME280;14717;46.924;15.474;2023-05-12T04:17:45;97580.53;;;10.93;100.00
27202;BME280;14717;46.924;15.474;2023-05-12T04:20:11;97575.88;;;10.89;100.00
27202;BME280;14717;46.924;15.474;2023-05-12T04:22:36;97578.13;;;10.87;100.00
27202;BME280;14717;46.924;15.474;2023-05-12T04:25:01;97585.16;;;10.79;100.00
27202;BME280;14717;46.924;15.474;2023-05-12T04:27:27;97583.22;;;10.80;100.00
27202;BME280;14717;46.924;15.474;2023-05-12T04:29:52;97584.66;;;10.77;100.00
27202;BME280;14717;46.924;15.474;2023-05-12T04:32:18;97580.25;;;10.76;100.00
27202;BME280;14717;46.924;15.474;2023-05-12T04:34:44;97581.88;;;10.77;100.00
27202;BME280;14717;46.924;15.474;2023-05-12T04:37:10;97585.16;;;10.79;100.00
27202;BME280;14717;46.924;15.474;2023-05-12T04:39:35;97589.66;;;10.75;100.00
27202;BME280;14717;46.924;15.474;2023-05-12T04:42:01;97594.59;;;10.78;100.00
27202;BME280;14717;46.924;15.474;2023-05-12T04:44:26;97598.38;;;10.82;100.00
27202;BME280;14717;46.924;15.474;2023-05-12T04:46:52;97593.78;;;10.78;100.00
27202;BME280;14717;46.924;15.474;2023-05-12T04:49:20;97601.66;;;10.84;100.00
27202;BME280;14717;46.924;15.474;2023-05-12T04:51:46;97604.19;;;10.81;100.00
27202;BME280;14717;46.924;15.474;2023-05-12T04:54:11;97612.41;;;10.86;100.00
27202;BME280;14717;46.924;15.474;2023-05-12T04:56:37;97603.00;;;10.87;100.00
27202;BME280;14717;46.924;15.474;2023-05-12T04:59:02;97607.66;;;10.91;100.00
27202;BME280;14717;46.924;15.474;2023-05-12T05:01:28;97602.78;;;10.83;100.00
27202;BME280;14717;46.924;15.474;2023-05-12T05:03:53;97612.19;;;10.82;100.00
27202;BME280;14717;46.924;15.474;2023-05-12T05:06:19;97606.28;;;10.89;100.00
27202;BME280;14717;46.924;15.474;2023-05-12T05:08:44;97612.50;;;10.81;100.00
27202;BME280;14717;46.924;15.474;2023-05-12T05:11:10;97609.34;;;10.87;100.00
27202;BME280;14717;46.924;15.474;2023-05-12T05:13:35;97616.00;;;10.86;100.00
27202;BME280;14717;46.924;15.474;2023-05-12T05:16:01;97607.72;;;10.86;100.00
27202;BME280;14717;46.924;15.474;2023-05-12T05:18:26;97605.47;;;10.88;100.00
27202;BME280;14717;46.924;15.474;2023-05-12T05:20:53;97608.03;;;10.85;100.00
27202;BME280;14717;46.924;15.474;2023-05-12T05:23:18;97611.50;;;10.90;100.00
27202;BME280;14717;46.924;15.474;2023-05-12T05:25:45;97612.25;;;10.96;100.00
27202;BME280;14717;46.924;15.474;2023-05-12T05:28:10;97617.38;;;11.02;100.00
27202;BME280;14717;46.924;15.474;2023-05-12T05:30:36;97621.09;;;10.98;100.00
27202;BME280;14717;46.924;15.474;2023-05-12T05:33:01;97627.19;;;10.95;100.00
27202;BME280;14717;46.924;15.474;2023-05-12T05:35:29;97621.47;;;10.91;100.00
27202;BME280;14717;46.924;15.474;2023-05-12T05:37:54;97626.16;;;10.91;100.00
27202;BME280;14717;46.924;15.474;2023-05-12T05:40:19;97622.09;;;11.02;100.00
27202;BME280;14717;46.924;15.474;2023-05-12T05:42:45;97626.81;;;11.01;100.00
27202;BME280;14717;46.924;15.474;2023-05-12T05:45:11;97628.28;;;11.12;100.00
27202;BME280;14717;46.924;15.474;2023-05-12T05:47:36;97634.50;;;11.04;100.00
27202;BME280;14717;46.924;15.474;2023-05-12T05:50:03;97638.56;;;10.93;100.00
27202;BME280;14717;46.924;15.474;2023-05-12T05:52:28;97641.03;;;10.95;100.00
27202;BME280;14717;46.924;15.474;2023-05-12T05:54:53;97645.03;;;11.02;100.00
27202;BME280;14717;46.924;15.474;2023-05-12T05:57:19;97631.13;;;11.07;100.00
27202;BME280;14717;46.924;15.474;2023-05-12T05:59:45;97637.81;;;11.06;100.00
27202;BME280;14717;46.924;15.474;2023-05-12T06:02:10;97644.66;;;11.08;100.00
27202;BME280;14717;46.924;15.474;2023-05-12T06:04:36;97642.63;;;11.14;100.00
27202;BME280;14717;46.924;15.474;2023-05-12T06:07:01;97641.00;;;11.13;100.00
27202;BME280;14717;46.924;15.474;2023-05-12T06:09:26;97643.47;;;11.14;100.00
27202;BME280;14717;46.924;15.474;2023-05-12T06:11:52;97652.88;;;11.13;100.00
27202;BME280;14717;46.924;15.474;2023-05-12T06:14:17;97649.81;;;11.15;100.00
27202;BME280;14717;46.924;15.474;2023-05-12T06:16:42;97658.66;;;11.30;100.00
27202;BME280;14717;46.924;15.474;2023-05-12T06:19:08;97655.81;;;11.35;100.00
27202;BME280;14717;46.924;15.474;2023-05-12T06:21:33;97662.56;;;11.29;100.00
27202;BME280;14717;46.924;15.474;2023-05-12T06:23:59;97660.81;;;11.33;100.00
27202;BME280;14717;46.924;15.474;2023-05-12T06:26:24;97658.88;;;11.34;100.00
27202;BME280;14717;46.924;15.474;2023-05-12T06:28:49;97663.59;;;11.33;100.00
27202;BME280;14717;46.924;15.474;2023-05-12T06:31:15;97668.31;;;11.33;100.00
27202;BME280;14717;46.924;15.474;2023-05-12T06:33:40;97669.00;;;11.25;100.00
27202;BME280;14717;46.924;15.474;2023-05-12T06:36:06;97672.78;;;11.29;100.00
27202;BME280;14717;46.924;15.474;2023-05-12T06:38:31;97669.50;;;11.27;100.00
27202;BME280;14717;46.924;15.474;2023-05-12T06:40:57;97668.38;;;11.28;100.00
27202;BME280;14717;46.924;15.474;2023-05-12T06:43:25;97672.78;;;11.29;100.00
27202;BME280;14717;46.924;15.474;2023-05-12T06:45:51;97660.56;;;11.16;100.00
27202;BME280;14717;46.924;15.474;2023-05-12T06:48:17;97666.69;;;11.13;100.00
27202;BME280;14717;46.924;15.474;2023-05-12T06:50:42;97666.59;;;11.18;100.00
27202;BME280;14717;46.924;15.474;2023-05-12T06:53:07;97667.03;;;11.25;100.00
27202;BME280;14717;46.924;15.474;2023-05-12T06:55:33;97672.47;;;11.30;100.00
27202;BME280;14717;46.924;15.474;2023-05-12T06:57:59;97675.03;;;11.27;100.00
27202;BME280;14717;46.924;15.474;2023-05-12T07:00:25;97668.09;;;11.29;100.00
27202;BME280;14717;46.924;15.474;2023-05-12T07:02:50;97665.72;;;11.23;100.00
27202;BME280;14717;46.924;15.474;2023-05-12T07:05:16;97670.66;;;11.26;100.00
27202;BME280;14717;46.924;15.474;2023-05-12T07:07:42;97672.84;;;11.24;100.00
27202;BME280;14717;46.924;15.474;2023-05-12T07:10:08;97665.78;;;11.18;100.00
27202;BME280;14717;46.924;15.474;2023-05-12T07:12:33;97666.22;;;11.25;100.00
27202;BME280;14717;46.924;15.474;2023-05-12T07:14:59;97668.84;;;11.16;100.00
27202;BME280;14717;46.924;15.474;2023-05-12T07:17:24;97673.34;;;11.12;100.00
27202;BME280;14717;46.924;15.474;2023-05-12T07:19:50;97670.25;;;11.14;100.00
27202;BME280;14717;46.924;15.474;2023-05-12T07:22:15;97674.16;;;11.13;100.00
27202;BME280;14717;46.924;15.474;2023-05-12T07:24:41;97665.19;;;11.21;100.00
27202;BME280;14717;46.924;15.474;2023-05-12T07:27:06;97670.00;;;11.29;100.00
27202;BME280;14717;46.924;15.474;2023-05-12T07:29:32;97655.59;;;11.32;100.00
27202;BME280;14717;46.924;15.474;2023-05-12T07:31:58;97663.19;;;11.40;100.00
27202;BME280;14717;46.924;15.474;2023-05-12T07:34:23;97658.72;;;11.44;100.00
27202;BME280;14717;46.924;15.474;2023-05-12T07:36:49;97671.69;;;11.61;100.00
27202;BME280;14717;46.924;15.474;2023-05-12T07:39:14;97661.47;;;11.75;100.00
27202;BME280;14717;46.924;15.474;2023-05-12T07:41:43;97663.00;;;11.81;100.00
27202;BME280;14717;46.924;15.474;2023-05-12T07:44:09;97665.75;;;11.68;100.00
27202;BME280;14717;46.924;15.474;2023-05-12T07:46:34;97661.88;;;11.69;100.00
27202;BME280;14717;46.924;15.474;2023-05-12T07:49:00;97657.56;;;11.76;100.00
27202;BME280;14717;46.924;15.474;2023-05-12T07:51:26;97663.31;;;11.80;100.00
27202;BME280;14717;46.924;15.474;2023-05-12T07:53:51;97662.91;;;11.86;100.00
27202;BME280;14717;46.924;15.474;2023-05-12T07:56:19;97663.56;;;11.96;100.00
27202;BME280;14717;46.924;15.474;2023-05-12T07:58:46;97663.97;;;12.03;100.00
27202;BME280;14717;46.924;15.474;2023-05-12T08:01:11;97658.84;;;12.10;100.00
27202;BME280;14717;46.924;15.474;2023-05-12T08:03:37;97664.16;;;12.33;100.00
27202;BME280;14717;46.924;15.474;2023-05-12T08:06:03;97668.47;;;12.39;100.00
27202;BME280;14717;46.924;15.474;2023-05-12T08:08:32;97668.59;;;12.34;100.00
27202;BME280;14717;46.924;15.474;2023-05-12T08:10:57;97671.03;;;12.49;100.00
27202;BME280;14717;46.924;15.474;2023-05-12T08:13:23;97674.59;;;12.63;100.00
27202;BME280;14717;46.924;15.474;2023-05-12T08:15:48;97675.09;;;12.78;100.00
27202;BME280;14717;46.924;15.474;2023-05-12T08:18:14;97676.84;;;12.88;100.00
27202;BME280;14717;46.924;15.474;2023-05-12T08:20:39;97682.19;;;12.71;100.00
27202;BME280;14717;46.924;15.474;2023-05-12T08:23:05;97685.06;;;12.66;100.00
27202;BME280;14717;46.924;15.474;2023-05-12T08:25:31;97686.53;;;12.37;100.00
27202;BME280;14717;46.924;15.474;2023-05-12T08:27:59;97683.25;;;12.35;100.00
27202;BME280;14717;46.924;15.474;2023-05-12T08:30:24;97695.25;;;12.31;100.00
27202;BME280;14717;46.924;15.474;2023-05-12T08:32:50;97688.09;;;12.16;100.00
27202;BME280;14717;46.924;15.474;2023-05-12T08:35:15;97689.19;;;12.15;100.00
27202;BME280;14717;46.924;15.474;2023-05-12T08:37:41;97691.66;;;12.17;100.00
27202;BME280;14717;46.924;15.474;2023-05-12T08:40:13;97690.25;;;12.32;100.00
27202;BME280;14717;46.924;15.474;2023-05-12T08:43:06;97701.13;;;12.42;100.00
27202;BME280;14717;46.924;15.474;2023-05-12T08:45:38;97708.50;;;12.33;100.00
27202;BME280;14717;46.924;15.474;2023-05-12T08:48:07;97708.09;;;12.40;100.00
27202;BME280;14717;46.924;15.474;2023-05-12T08:50:34;97703.47;;;12.49;100.00
27202;BME280;14717;46.924;15.474;2023-05-12T08:53:02;97708.06;;;12.53;100.00
27202;BME280;14717;46.924;15.474;2023-05-12T08:55:28;97707.69;;;12.33;100.00
27202;BME280;14717;46.924;15.474;2023-05-12T08:57:55;97705.22;;;12.45;100.00
27202;BME280;14717;46.924;15.474;2023-05-12T09:00:22;97703.25;;;12.59;100.00
27202;BME280;14717;46.924;15.474;2023-05-12T09:02:50;97700.06;;;12.52;100.00
27202;BME280;14717;46.924;15.474;2023-05-12T09:05:17;97705.63;;;12.38;100.00
27202;BME280;14717;46.924;15.474;2023-05-12T09:07:43;97707.88;;;12.36;100.00
27202;BME280;14717;46.924;15.474;2023-05-12T09:10:15;97712.41;;;12.32;100.00
27202;BME280;14717;46.924;15.474;2023-05-12T09:12:47;97707.28;;;12.26;100.00
27202;BME280;14717;46.924;15.474;2023-05-12T09:15:25;97714.44;;;12.14;100.00
27202;BME280;14717;46.924;15.474;2023-05-12T09:17:51;97708.59;;;12.29;100.00
27202;BME280;14717;46.924;15.474;2023-05-12T09:20:17;97701.31;;;12.19;100.00
27202;BME280;14717;46.924;15.474;2023-05-12T09:22:43;97701.84;;;12.34;100.00
27202;BME280;14717;46.924;15.474;2023-05-12T09:25:16;97695.53;;;12.69;100.00
27202;BME280;14717;46.924;15.474;2023-05-12T09:27:43;97695.72;;;13.21;100.00
27202;BME280;14717;46.924;15.474;2023-05-12T09:30:08;97705.84;;;13.17;100.00
27202;BME280;14717;46.924;15.474;2023-05-12T09:32:34;97706.59;;;12.96;100.00
27202;BME280;14717;46.924;15.474;2023-05-12T09:35:04;97707.47;;;13.18;100.00
27202;BME280;14717;46.924;15.474;2023-05-12T09:37:31;97708.31;;;13.40;100.00
27202;BME280;14717;46.924;15.474;2023-05-12T09:40:01;97705.53;;;13.18;100.00
27202;BME280;14717;46.924;15.474;2023-05-12T09:42:28;97714.22;;;12.90;100.00
27202;BME280;14717;46.924;15.474;2023-05-12T09:45:05;97705.09;;;13.25;100.00
27202;BME280;14717;46.924;15.474;2023-05-12T09:47:35;97721.69;;;13.03;100.00
27202;BME280;14717;46.924;15.474;2023-05-12T09:50:02;97716.31;;;12.85;100.00
27202;BME280;14717;46.924;15.474;2023-05-12T09:52:29;97723.25;;;12.69;100.00
27202;BME280;14717;46.924;15.474;2023-05-12T09:55:06;97717.72;;;12.69;100.00
27202;BME280;14717;46.924;15.474;2023-05-12T09:57:35;97714.03;;;12.74;100.00
27202;BME280;14717;46.924;15.474;2023-05-12T10:00:02;97707.84;;;12.63;100.00
27202;BME280;14717;46.924;15.474;2023-05-12T10:02:28;97712.00;;;12.52;100.00
27202;BME280;14717;46.924;15.474;2023-05-12T10:05:01;97712.19;;;12.56;100.00
27202;BME280;14717;46.924;15.474;2023-05-12T10:07:27;97712.19;;;12.42;100.00
27202;BME280;14717;46.924;15.474;2023-05-12T10:09:54;97712.50;;;12.54;100.00
27202;BME280;14717;46.924;15.474;2023-05-12T10:12:23;97710.94;;;12.62;100.00
27202;BME280;14717;46.924;15.474;2023-05-12T10:14:49;97713.59;;;12.80;100.00
27202;BME280;14717;46.924;15.474;2023-05-12T10:17:15;97719.88;;;12.85;100.00
27202;BME280;14717;46.924;15.474;2023-05-12T10:19:43;97714.84;;;12.87;100.00
27202;BME280;14717;46.924;15.474;2023-05-12T10:22:09;97709.28;;;12.87;100.00
27202;BME280;14717;46.924;15.474;2023-05-12T10:24:36;97703.13;;;12.77;100.00
27202;BME280;14717;46.924;15.474;2023-05-12T10:27:04;97701.91;;;12.83;100.00
27202;BME280;14717;46.924;15.474;2023-05-12T10:29:30;97703.56;;;12.84;100.00
27202;BME280;14717;46.924;15.474;2023-05-12T10:31:58;97694.50;;;12.92;100.00
27202;BME280;14717;46.924;15.474;2023-05-12T10:34:31;97701.88;;;13.10;100.00
27202;BME280;14717;46.924;15.474;2023-05-12T10:36:57;97702.88;;;13.14;100.00
27202;BME280;14717;46.924;15.474;2023-05-12T10:39:30;97693.53;;;13.10;100.00
27202;BME280;14717;46.924;15.474;2023-05-12T10:42:01;97699.34;;;13.21;100.00
27202;BME280;14717;46.924;15.474;2023-05-12T10:44:29;97709.16;;;13.06;98.74
27202;BME280;14717;46.924;15.474;2023-05-12T10:46:58;97712.72;;;13.19;100.00
27202;BME280;14717;46.924;15.474;2023-05-12T10:49:31;97710.06;;;13.15;100.00
27202;BME280;14717;46.924;15.474;2023-05-12T10:51:58;97710.06;;;13.15;100.00
27202;BME280;14717;46.924;15.474;2023-05-12T10:54:24;97708.78;;;13.20;100.00
27202;BME280;14717;46.924;15.474;2023-05-12T10:56:50;97712.06;;;13.22;100.00
27202;BME280;14717;46.924;15.474;2023-05-12T10:59:21;97717.84;;;13.13;100.00
27202;BME280;14717;46.924;15.474;2023-05-12T11:02:04;97714.38;;;13.07;100.00
27202;BME280;14717;46.924;15.474;2023-05-12T11:07:04;97707.41;;;13.10;100.00
27202;BME280;14717;46.924;15.474;2023-05-12T11:09:37;97707.75;;;13.30;100.00
27202;BME280;14717;46.924;15.474;2023-05-12T11:12:05;97716.00;;;13.21;100.00
27202;BME280;14717;46.924;15.474;2023-05-12T11:14:32;97711.81;;;13.32;100.00
27202;BME280;14717;46.924;15.474;2023-05-12T11:16:58;97715.06;;;13.48;100.00
27202;BME280;14717;46.924;15.474;2023-05-12T11:19:23;97711.09;;;13.62;100.00
27202;BME280;14717;46.924;15.474;2023-05-12T11:21:49;97716.63;;;13.62;99.31
27202;BME280;14717;46.924;15.474;2023-05-12T11:24:19;97707.31;;;13.36;100.00
27202;BME280;14717;46.924;15.474;2023-05-12T11:26:48;97716.88;;;13.30;100.00
27202;BME280;14717;46.924;15.474;2023-05-12T11:29:29;97716.63;;;13.18;98.46
27202;BME280;14717;46.924;15.474;2023-05-12T11:31:57;97719.84;;;13.34;98.89
27202;BME280;14717;46.924;15.474;2023-05-12T11:34:25;97718.91;;;13.60;100.00
27202;BME280;14717;46.924;15.474;2023-05-12T11:36:55;97713.22;;;13.87;100.00
27202;BME280;14717;46.924;15.474;2023-05-12T11:39:25;97717.28;;;13.81;100.00
27202;BME280;14717;46.924;15.474;2023-05-12T11:41:51;97720.06;;;13.81;100.00
27202;BME280;14717;46.924;15.474;2023-05-12T11:44:23;97727.06;;;13.57;100.00
27202;BME280;14717;46.924;15.474;2023-05-12T11:52:10;97724.81;;;13.23;100.00
27202;BME280;14717;46.924;15.474;2023-05-12T11:54:36;97732.25;;;13.15;100.00
27202;BME280;14717;46.924;15.474;2023-05-12T11:57:01;97729.81;;;13.00;100.00
27202;BME280;14717;46.924;15.474;2023-05-12T12:01:55;97737.81;;;12.74;100.00
27202;BME280;14717;46.924;15.474;2023-05-12T12:04:33;97731.34;;;12.79;100.00
27202;BME280;14717;46.924;15.474;2023-05-12T12:06:59;97731.28;;;12.84;100.00
27202;BME280;14717;46.924;15.474;2023-05-12T12:09:37;97736.28;;;12.95;100.00
27202;BME280;14717;46.924;15.474;2023-05-12T12:12:04;97737.34;;;12.86;100.00
27202;BME280;14717;46.924;15.474;2023-05-12T12:14:30;97729.94;;;12.95;100.00
27202;BME280;14717;46.924;15.474;2023-05-12T12:16:57;97744.16;;;13.15;100.00
27202;BME280;14717;46.924;15.474;2023-05-12T12:19:22;97739.53;;;13.11;100.00
27202;BME280;14717;46.924;15.474;2023-05-12T12:21:48;97738.69;;;13.23;100.00
27202;BME280;14717;46.924;15.474;2023-05-12T12:24:14;97741.84;;;13.30;100.00
27202;BME280;14717;46.924;15.474;2023-05-12T12:26:40;97733.72;;;13.34;100.00
27202;BME280;14717;46.924;15.474;2023-05-12T12:29:05;97734.03;;;13.32;99.67
27202;BME280;14717;46.924;15.474;2023-05-12T12:31:30;97739.19;;;13.25;98.85
27202;BME280;14717;46.924;15.474;2023-05-12T12:33:56;97732.53;;;13.26;100.00
27202;BME280;14717;46.924;15.474;2023-05-12T12:36:21;97733.28;;;13.40;100.00
27202;BME280;14717;46.924;15.474;2023-05-12T12:38:46;97739.69;;;13.41;100.00
27202;BME280;14717;46.924;15.474;2023-05-12T12:41:12;97734.81;;;13.46;100.00
27202;BME280;14717;46.924;15.474;2023-05-12T12:43:38;97744.69;;;13.39;100.00
27202;BME280;14717;46.924;15.474;2023-05-12T12:46:04;97740.81;;;13.40;100.00
27202;BME280;14717;46.924;15.474;2023-05-12T12:48:30;97736.56;;;13.42;100.00